sensor_id;sensor_type;location;lat;lon;timestamp;temperature;humidity
15630;DHT22;7914;50.842;0.166;2023-02-13T00:03:14;5.90;1.00
15630;DHT22;7914;50.842;0.166;2023-02-13T00:05:39;5.80;1.00
15630;DHT22;7914;50.842;0.166;2023-02-13T00:08:05;5.80;1.00
15630;DHT22;7914;50.842;0.166;2023-02-13T00:10:31;5.80;1.00
15630;DHT22;7914;50.842;0.166;2023-02-13T00:12:56;5.70;1.00
15630;DHT22;7914;50.842;0.166;2023-02-13T00:15:22;6.40;1.00
15630;DHT22;7914;50.842;0.166;2023-02-13T00:17:48;5.60;1.00
15630;DHT22;7914;50.842;0.166;2023-02-13T00:20:13;5.50;1.00
15630;DHT22;7914;50.842;0.166;2023-02-13T00:22:39;5.60;1.00
15630;DHT22;7914;50.842;0.166;2023-02-13T00:25:06;5.60;1.00
15630;DHT22;7914;50.842;0.166;2023-02-13T00:27:32;5.40;1.00
15630;DHT22;7914;50.842;0.166;2023-02-13T00:29:57;5.40;1.00
15630;DHT22;7914;50.842;0.166;2023-02-13T00:32:23;5.30;8.70
15630;DHT22;7914;50.842;0.166;2023-02-13T00:34:49;5.20;33.80
15630;DHT22;7914;50.842;0.166;2023-02-13T00:37:15;5.30;80.80
15630;DHT22;7914;50.842;0.166;2023-02-13T00:39:41;5.20;51.90
15630;DHT22;7914;50.842;0.166;2023-02-13T00:42:06;5.20;84.70
15630;DHT22;7914;50.842;0.166;2023-02-13T00:44:32;6.10;97.60
15630;DHT22;7914;50.842;0.166;2023-02-13T00:46:58;5.10;79.10
15630;DHT22;7914;50.842;0.166;2023-02-13T00:49:23;5.10;55.90
15630;DHT22;7914;50.842;0.166;2023-02-13T00:51:49;5.00;84.00
15630;DHT22;7914;50.842;0.166;2023-02-13T00:54:15;5.00;67.20
15630;DHT22;7914;50.842;0.166;2023-02-13T00:56:40;4.90;99.90
15630;DHT22;7914;50.842;0.166;2023-02-13T00:59:06;4.90;99.90
15630;DHT22;7914;50.842;0.166;2023-02-13T01:01:32;4.90;99.90
15630;DHT22;7914;50.842;0.166;2023-02-13T01:03:58;4.80;99.90
15630;DHT22;7914;50.842;0.166;2023-02-13T01:06:23;4.80;99.90
15630;DHT22;7914;50.842;0.166;2023-02-13T01:08:49;4.80;99.90
15630;DHT22;7914;50.842;0.166;2023-02-13T01:11:15;4.70;99.90
15630;DHT22;7914;50.842;0.166;2023-02-13T01:13:40;4.70;99.90
15630;DHT22;7914;50.842;0.166;2023-02-13T01:16:07;4.70;99.90
15630;DHT22;7914;50.842;0.166;2023-02-13T01:18:32;4.60;99.90
15630;DHT22;7914;50.842;0.166;2023-02-13T01:21:04;4.60;99.90
15630;DHT22;7914;50.842;0.166;2023-02-13T01:23:36;4.50;99.90
15630;DHT22;7914;50.842;0.166;2023-02-13T01:26:07;4.40;99.90
15630;DHT22;7914;50.842;0.166;2023-02-13T01:28:33;4.30;99.90
15630;DHT22;7914;50.842;0.166;2023-02-13T01:30:58;4.20;99.90
15630;DHT22;7914;50.842;0.166;2023-02-13T01:33:26;4.10;99.90
15630;DHT22;7914;50.842;0.166;2023-02-13T01:35:52;4.10;99.90
15630;DHT22;7914;50.842;0.166;2023-02-13T01:38:18;4.10;99.90
15630;DHT22;7914;50.842;0.166;2023-02-13T01:40:46;4.00;99.90
15630;DHT22;7914;50.842;0.166;2023-02-13T01:43:12;4.00;99.90
15630;DHT22;7914;50.842;0.166;2023-02-13T01:45:37;3.90;99.90
15630;DHT22;7914;50.842;0.166;2023-02-13T01:50:43;4.10;99.90
15630;DHT22;7914;50.842;0.166;2023-02-13T01:53:16;4.00;99.90
15630;DHT22;7914;50.842;0.166;2023-02-13T01:55:50;3.90;99.90
15630;DHT22;7914;50.842;0.166;2023-02-13T01:58:23;3.90;99.90
15630;DHT22;7914;50.842;0.166;2023-02-13T02:00:49;4.70;99.90
15630;DHT22;7914;50.842;0.166;2023-02-13T02:03:23;3.80;99.90
15630;DHT22;7914;50.842;0.166;2023-02-13T02:05:50;3.70;99.90
15630;DHT22;7914;50.842;0.166;2023-02-13T02:08:16;4.70;99.90
15630;DHT22;7914;50.842;0.166;2023-02-13T02:10:43;3.60;99.90
15630;DHT22;7914;50.842;0.166;2023-02-13T02:13:15;3.60;99.90
15630;DHT22;7914;50.842;0.166;2023-02-13T02:15:43;3.50;99.90
15630;DHT22;7914;50.842;0.166;2023-02-13T02:28:50;3.40;99.90
15630;DHT22;7914;50.842;0.166;2023-02-13T02:40:00;3.40;99.90
15630;DHT22;7914;50.842;0.166;2023-02-13T02:45:32;3.30;99.90
15630;DHT22;7914;50.842;0.166;2023-02-13T02:48:10;3.30;99.90
15630;DHT22;7914;50.842;0.166;2023-02-13T02:53:53;3.30;99.90
15630;DHT22;7914;50.842;0.166;2023-02-13T02:56:25;3.20;99.90
15630;DHT22;7914;50.842;0.166;2023-02-13T02:58:59;3.20;99.90
15630;DHT22;7914;50.842;0.166;2023-02-13T03:01:46;3.20;99.90
15630;DHT22;7914;50.842;0.166;2023-02-13T03:04:39;3.30;99.90
15630;DHT22;7914;50.842;0.166;2023-02-13T03:07:23;3.20;99.90
15630;DHT22;7914;50.842;0.166;2023-02-13T03:09:56;3.30;99.90
15630;DHT22;7914;50.842;0.166;2023-02-13T03:12:46;3.40;99.90
15630;DHT22;7914;50.842;0.166;2023-02-13T03:15:32;3.30;99.90
15630;DHT22;7914;50.842;0.166;2023-02-13T03:17:58;3.30;99.90
15630;DHT22;7914;50.842;0.166;2023-02-13T03:20:57;3.30;99.90
15630;DHT22;7914;50.842;0.166;2023-02-13T03:26:43;3.30;99.90
15630;DHT22;7914;50.842;0.166;2023-02-13T03:33:29;3.10;99.90
15630;DHT22;7914;50.842;0.166;2023-02-13T03:35:48;3.10;99.90
15630;DHT22;7914;50.842;0.166;2023-02-13T03:38:41;3.00;99.90
15630;DHT22;7914;50.842;0.166;2023-02-13T03:41:19;3.00;99.90
15630;DHT22;7914;50.842;0.166;2023-02-13T03:46:52;3.20;99.90
15630;DHT22;7914;50.842;0.166;2023-02-13T03:49:22;3.20;99.90
15630;DHT22;7914;50.842;0.166;2023-02-13T03:52:13;3.00;99.90
15630;DHT22;7914;50.842;0.166;2023-02-13T03:54:49;2.90;99.90
15630;DHT22;7914;50.842;0.166;2023-02-13T03:57:37;2.90;99.90
15630;DHT22;7914;50.842;0.166;2023-02-13T04:00:24;2.80;99.90
15630;DHT22;7914;50.842;0.166;2023-02-13T04:02:58;2.70;99.90
15630;DHT22;7914;50.842;0.166;2023-02-13T04:05:28;2.60;99.90
15630;DHT22;7914;50.842;0.166;2023-02-13T04:07:55;2.50;99.90
15630;DHT22;7914;50.842;0.166;2023-02-13T04:10:22;2.40;99.90
15630;DHT22;7914;50.842;0.166;2023-02-13T04:16:09;2.30;99.90
15630;DHT22;7914;50.842;0.166;2023-02-13T04:18:37;2.30;99.90
15630;DHT22;7914;50.842;0.166;2023-02-13T04:21:05;2.30;99.90
15630;DHT22;7914;50.842;0.166;2023-02-13T04:23:31;2.30;99.90
15630;DHT22;7914;50.842;0.166;2023-02-13T04:26:02;2.20;99.90
15630;DHT22;7914;50.842;0.166;2023-02-13T04:28:29;2.20;99.90
15630;DHT22;7914;50.842;0.166;2023-02-13T04:30:55;2.20;99.90
15630;DHT22;7914;50.842;0.166;2023-02-13T04:33:21;2.20;99.90
15630;DHT22;7914;50.842;0.166;2023-02-13T04:35:47;2.10;99.90
15630;DHT22;7914;50.842;0.166;2023-02-13T04:38:13;2.20;99.90
15630;DHT22;7914;50.842;0.166;2023-02-13T04:40:38;2.10;99.90
15630;DHT22;7914;50.842;0.166;2023-02-13T04:43:05;2.00;99.90
15630;DHT22;7914;50.842;0.166;2023-02-13T04:45:31;2.00;99.90
15630;DHT22;7914;50.842;0.166;2023-02-13T04:47:57;1.90;99.90
15630;DHT22;7914;50.842;0.166;2023-02-13T04:50:24;2.00;99.90
15630;DHT22;7914;50.842;0.166;2023-02-13T04:52:52;2.00;99.90
15630;DHT22;7914;50.842;0.166;2023-02-13T04:55:19;2.00;99.90
15630;DHT22;7914;50.842;0.166;2023-02-13T04:57:44;2.00;99.90
15630;DHT22;7914;50.842;0.166;2023-02-13T05:00:10;1.90;99.90
15630;DHT22;7914;50.842;0.166;2023-02-13T05:02:36;1.90;99.90
15630;DHT22;7914;50.842;0.166;2023-02-13T05:05:02;1.90;99.90
15630;DHT22;7914;50.842;0.166;2023-02-13T05:07:28;1.90;99.90
15630;DHT22;7914;50.842;0.166;2023-02-13T05:09:53;1.80;99.90
15630;DHT22;7914;50.842;0.166;2023-02-13T05:12:19;1.80;99.90
15630;DHT22;7914;50.842;0.166;2023-02-13T05:14:44;1.90;99.90
15630;DHT22;7914;50.842;0.166;2023-02-13T05:17:10;1.90;99.90
15630;DHT22;7914;50.842;0.166;2023-02-13T05:19:36;2.00;99.90
15630;DHT22;7914;50.842;0.166;2023-02-13T05:22:01;1.90;99.90
15630;DHT22;7914;50.842;0.166;2023-02-13T05:24:45;1.90;99.90
15630;DHT22;7914;50.842;0.166;2023-02-13T05:27:11;1.80;99.90
15630;DHT22;7914;50.842;0.166;2023-02-13T05:29:37;1.90;99.90
15630;DHT22;7914;50.842;0.166;2023-02-13T05:32:02;1.90;99.90
15630;DHT22;7914;50.842;0.166;2023-02-13T05:34:28;1.90;99.90
15630;DHT22;7914;50.842;0.166;2023-02-13T05:36:54;1.80;99.90
15630;DHT22;7914;50.842;0.166;2023-02-13T05:39:20;1.80;99.90
15630;DHT22;7914;50.842;0.166;2023-02-13T05:41:47;2.40;99.90
15630;DHT22;7914;50.842;0.166;2023-02-13T05:44:13;1.90;99.90
15630;DHT22;7914;50.842;0.166;2023-02-13T05:46:40;1.90;99.90
15630;DHT22;7914;50.842;0.166;2023-02-13T05:49:07;2.00;99.90
15630;DHT22;7914;50.842;0.166;2023-02-13T05:51:33;2.10;99.90
15630;DHT22;7914;50.842;0.166;2023-02-13T05:53:59;2.00;99.90
15630;DHT22;7914;50.842;0.166;2023-02-13T05:56:25;1.90;99.90
15630;DHT22;7914;50.842;0.166;2023-02-13T05:58:52;1.90;99.90
15630;DHT22;7914;50.842;0.166;2023-02-13T06:01:17;2.00;99.90
15630;DHT22;7914;50.842;0.166;2023-02-13T06:03:43;1.90;99.90
15630;DHT22;7914;50.842;0.166;2023-02-13T06:06:09;1.70;99.90
15630;DHT22;7914;50.842;0.166;2023-02-13T06:08:35;1.60;99.90
15630;DHT22;7914;50.842;0.166;2023-02-13T06:11:01;1.60;99.90
15630;DHT22;7914;50.842;0.166;2023-02-13T06:13:26;1.60;99.90
15630;DHT22;7914;50.842;0.166;2023-02-13T06:15:52;1.60;99.90
15630;DHT22;7914;50.842;0.166;2023-02-13T06:18:18;1.60;99.90
15630;DHT22;7914;50.842;0.166;2023-02-13T06:20:44;1.60;99.90
15630;DHT22;7914;50.842;0.166;2023-02-13T06:23:09;1.60;99.90
15630;DHT22;7914;50.842;0.166;2023-02-13T06:25:35;1.50;99.90
15630;DHT22;7914;50.842;0.166;2023-02-13T06:28:02;1.60;99.90
15630;DHT22;7914;50.842;0.166;2023-02-13T06:30:28;1.70;99.90
15630;DHT22;7914;50.842;0.166;2023-02-13T06:32:53;1.60;99.90
15630;DHT22;7914;50.842;0.166;2023-02-13T06:35:19;1.80;99.90
15630;DHT22;7914;50.842;0.166;2023-02-13T06:37:45;1.80;99.90
15630;DHT22;7914;50.842;0.166;2023-02-13T06:40:12;1.70;99.90
15630;DHT22;7914;50.842;0.166;2023-02-13T06:42:38;1.70;99.90
15630;DHT22;7914;50.842;0.166;2023-02-13T06:45:04;1.70;99.90
15630;DHT22;7914;50.842;0.166;2023-02-13T06:47:30;1.60;99.90
15630;DHT22;7914;50.842;0.166;2023-02-13T06:49:56;1.50;99.90
15630;DHT22;7914;50.842;0.166;2023-02-13T06:52:21;1.50;99.90
15630;DHT22;7914;50.842;0.166;2023-02-13T06:54:47;1.60;99.90
15630;DHT22;7914;50.842;0.166;2023-02-13T06:57:13;1.60;99.90
15630;DHT22;7914;50.842;0.166;2023-02-13T06:59:38;1.50;99.90
15630;DHT22;7914;50.842;0.166;2023-02-13T07:02:04;1.60;99.90
15630;DHT22;7914;50.842;0.166;2023-02-13T07:04:30;1.50;99.90
15630;DHT22;7914;50.842;0.166;2023-02-13T07:06:56;1.80;99.90
15630;DHT22;7914;50.842;0.166;2023-02-13T07:09:22;1.60;99.90
15630;DHT22;7914;50.842;0.166;2023-02-13T07:11:49;1.60;99.90
15630;DHT22;7914;50.842;0.166;2023-02-13T07:14:14;1.70;99.90
15630;DHT22;7914;50.842;0.166;2023-02-13T07:16:40;1.80;99.90
15630;DHT22;7914;50.842;0.166;2023-02-13T07:19:06;1.80;99.90
15630;DHT22;7914;50.842;0.166;2023-02-13T07:21:32;1.80;99.90
15630;DHT22;7914;50.842;0.166;2023-02-13T07:23:57;1.90;99.90
15630;DHT22;7914;50.842;0.166;2023-02-13T07:26:23;2.00;99.90
15630;DHT22;7914;50.842;0.166;2023-02-13T07:28:51;2.00;99.90
15630;DHT22;7914;50.842;0.166;2023-02-13T07:31:16;2.10;99.90
15630;DHT22;7914;50.842;0.166;2023-02-13T07:33:42;2.10;99.90
15630;DHT22;7914;50.842;0.166;2023-02-13T07:36:08;2.20;99.90
15630;DHT22;7914;50.842;0.166;2023-02-13T07:38:34;2.30;99.90
15630;DHT22;7914;50.842;0.166;2023-02-13T07:41:03;2.40;99.90
15630;DHT22;7914;50.842;0.166;2023-02-13T07:43:29;2.30;99.90
15630;DHT22;7914;50.842;0.166;2023-02-13T07:46:00;2.40;99.90
15630;DHT22;7914;50.842;0.166;2023-02-13T07:48:26;2.40;99.90
15630;DHT22;7914;50.842;0.166;2023-02-13T07:50:53;2.50;99.90
15630;DHT22;7914;50.842;0.166;2023-02-13T07:53:19;2.50;99.90
15630;DHT22;7914;50.842;0.166;2023-02-13T07:55:44;2.50;99.90
15630;DHT22;7914;50.842;0.166;2023-02-13T07:58:10;2.60;99.90
15630;DHT22;7914;50.842;0.166;2023-02-13T08:00:36;2.50;99.90
15630;DHT22;7914;50.842;0.166;2023-02-13T08:03:02;2.50;99.90
15630;DHT22;7914;50.842;0.166;2023-02-13T08:05:28;2.40;99.90
15630;DHT22;7914;50.842;0.166;2023-02-13T08:07:55;2.40;99.90
15630;DHT22;7914;50.842;0.166;2023-02-13T08:10:21;2.40;99.90
15630;DHT22;7914;50.842;0.166;2023-02-13T08:13:06;2.30;99.90
15630;DHT22;7914;50.842;0.166;2023-02-13T08:15:32;2.40;99.90
15630;DHT22;7914;50.842;0.166;2023-02-13T08:17:58;2.40;99.90
15630;DHT22;7914;50.842;0.166;2023-02-13T08:20:24;2.60;99.90
15630;DHT22;7914;50.842;0.166;2023-02-13T08:22:49;2.70;99.90
15630;DHT22;7914;50.842;0.166;2023-02-13T08:25:15;3.00;99.90
15630;DHT22;7914;50.842;0.166;2023-02-13T08:27:41;3.40;99.90
15630;DHT22;7914;50.842;0.166;2023-02-13T08:30:08;3.70;99.90
15630;DHT22;7914;50.842;0.166;2023-02-13T08:32:34;4.00;99.90
15630;DHT22;7914;50.842;0.166;2023-02-13T08:35:00;4.30;99.90
15630;DHT22;7914;50.842;0.166;2023-02-13T08:37:26;4.60;99.90
15630;DHT22;7914;50.842;0.166;2023-02-13T08:39:52;4.70;99.90
15630;DHT22;7914;50.842;0.166;2023-02-13T08:42:17;4.90;99.90
15630;DHT22;7914;50.842;0.166;2023-02-13T08:44:43;5.80;99.90
15630;DHT22;7914;50.842;0.166;2023-02-13T08:47:09;5.30;99.90
15630;DHT22;7914;50.842;0.166;2023-02-13T08:49:35;5.40;99.90
15630;DHT22;7914;50.842;0.166;2023-02-13T08:52:01;5.90;99.90
15630;DHT22;7914;50.842;0.166;2023-02-13T08:54:27;5.50;99.90
15630;DHT22;7914;50.842;0.166;2023-02-13T08:56:54;5.60;99.90
15630;DHT22;7914;50.842;0.166;2023-02-13T08:59:20;5.70;99.90
15630;DHT22;7914;50.842;0.166;2023-02-13T09:01:46;5.80;99.90
15630;DHT22;7914;50.842;0.166;2023-02-13T09:04:12;6.00;99.90
15630;DHT22;7914;50.842;0.166;2023-02-13T09:06:41;6.20;99.90
15630;DHT22;7914;50.842;0.166;2023-02-13T09:09:06;6.10;99.90
15630;DHT22;7914;50.842;0.166;2023-02-13T09:11:32;6.30;99.90
15630;DHT22;7914;50.842;0.166;2023-02-13T09:13:58;6.40;99.90
15630;DHT22;7914;50.842;0.166;2023-02-13T09:16:24;6.50;99.90
15630;DHT22;7914;50.842;0.166;2023-02-13T09:18:50;6.60;99.90
15630;DHT22;7914;50.842;0.166;2023-02-13T09:21:17;6.70;99.90
15630;DHT22;7914;50.842;0.166;2023-02-13T09:23:43;6.80;99.90
15630;DHT22;7914;50.842;0.166;2023-02-13T09:26:12;7.90;99.90
15630;DHT22;7914;50.842;0.166;2023-02-13T09:28:38;6.80;99.90
15630;DHT22;7914;50.842;0.166;2023-02-13T09:31:12;6.80;99.90
15630;DHT22;7914;50.842;0.166;2023-02-13T09:33:42;6.80;99.90
15630;DHT22;7914;50.842;0.166;2023-02-13T09:36:10;6.90;99.90
15630;DHT22;7914;50.842;0.166;2023-02-13T09:38:37;7.10;99.90
15630;DHT22;7914;50.842;0.166;2023-02-13T09:41:28;7.30;99.90
15630;DHT22;7914;50.842;0.166;2023-02-13T09:44:04;7.50;91.00
15630;DHT22;7914;50.842;0.166;2023-02-13T09:46:40;7.50;1.00
15630;DHT22;7914;50.842;0.166;2023-02-13T09:49:13;7.60;1.00
15630;DHT22;7914;50.842;0.166;2023-02-13T09:51:42;7.70;1.00
15630;DHT22;7914;50.842;0.166;2023-02-13T09:54:13;7.70;1.00
15630;DHT22;7914;50.842;0.166;2023-02-13T09:56:54;8.60;1.00
15630;DHT22;7914;50.842;0.166;2023-02-13T09:59:56;8.10;1.00
15630;DHT22;7914;50.842;0.166;2023-02-13T10:19:31;8.80;1.00
15630;DHT22;7914;50.842;0.166;2023-02-13T10:22:16;8.90;1.00
15630;DHT22;7914;50.842;0.166;2023-02-13T10:24:53;9.00;1.00
15630;DHT22;7914;50.842;0.166;2023-02-13T10:27:25;9.20;1.00
15630;DHT22;7914;50.842;0.166;2023-02-13T10:30:05;9.30;1.00
15630;DHT22;7914;50.842;0.166;2023-02-13T10:35:28;9.30;1.00
15630;DHT22;7914;50.842;0.166;2023-02-13T10:37:57;9.40;1.00
15630;DHT22;7914;50.842;0.166;2023-02-13T10:40:31;9.40;1.00
15630;DHT22;7914;50.842;0.166;2023-02-13T10:43:08;9.40;1.00
15630;DHT22;7914;50.842;0.166;2023-02-13T10:48:42;9.50;1.00
15630;DHT22;7914;50.842;0.166;2023-02-13T10:51:26;9.60;1.00
15630;DHT22;7914;50.842;0.166;2023-02-13T10:57:15;9.60;1.00
15630;DHT22;7914;50.842;0.166;2023-02-13T11:00:17;9.80;1.00
15630;DHT22;7914;50.842;0.166;2023-02-13T11:02:46;9.80;1.00
15630;DHT22;7914;50.842;0.166;2023-02-13T11:05:21;9.80;1.00
15630;DHT22;7914;50.842;0.166;2023-02-13T11:07:48;9.90;1.00
15630;DHT22;7914;50.842;0.166;2023-02-13T11:10:21;9.90;1.00
15630;DHT22;7914;50.842;0.166;2023-02-13T11:12:48;10.00;1.00
15630;DHT22;7914;50.842;0.166;2023-02-13T11:17:46;9.80;1.00
15630;DHT22;7914;50.842;0.166;2023-02-13T11:20:38;9.90;1.00
15630;DHT22;7914;50.842;0.166;2023-02-13T11:28:24;9.80;1.00
15630;DHT22;7914;50.842;0.166;2023-02-13T11:30:51;9.80;1.00
15630;DHT22;7914;50.842;0.166;2023-02-13T11:33:23;9.90;1.00
15630;DHT22;7914;50.842;0.166;2023-02-13T11:36:04;9.80;1.00
15630;DHT22;7914;50.842;0.166;2023-02-13T11:38:30;9.90;1.00
15630;DHT22;7914;50.842;0.166;2023-02-13T11:41:14;9.90;1.00
15630;DHT22;7914;50.842;0.166;2023-02-13T11:43:47;10.00;1.00
15630;DHT22;7914;50.842;0.166;2023-02-13T11:46:23;9.90;1.00
15630;DHT22;7914;50.842;0.166;2023-02-13T11:49:03;10.00;1.00
15630;DHT22;7914;50.842;0.166;2023-02-13T11:51:37;10.00;1.00
15630;DHT22;7914;50.842;0.166;2023-02-13T11:54:04;10.00;1.00
15630;DHT22;7914;50.842;0.166;2023-02-13T11:56:50;10.00;1.00
15630;DHT22;7914;50.842;0.166;2023-02-13T11:59:16;10.00;1.00
15630;DHT22;7914;50.842;0.166;2023-02-13T12:01:42;10.00;1.00
15630;DHT22;7914;50.842;0.166;2023-02-13T12:04:15;10.10;1.00
15630;DHT22;7914;50.842;0.166;2023-02-13T12:07:03;9.90;99.90
15630;DHT22;7914;50.842;0.166;2023-02-13T12:09:38;9.90;99.90
15630;DHT22;7914;50.842;0.166;2023-02-13T12:12:04;9.90;1.00
15630;DHT22;7914;50.842;0.166;2023-02-13T12:14:38;9.90;1.00
15630;DHT22;7914;50.842;0.166;2023-02-13T12:17:09;10.00;1.00
15630;DHT22;7914;50.842;0.166;2023-02-13T12:19:45;9.90;1.00
15630;DHT22;7914;50.842;0.166;2023-02-13T12:33:31;9.90;1.00
15630;DHT22;7914;50.842;0.166;2023-02-13T12:36:35;9.80;99.90
15630;DHT22;7914;50.842;0.166;2023-02-13T12:39:49;9.90;99.90
15630;DHT22;7914;50.842;0.166;2023-02-13T12:43:41;9.90;1.00
15630;DHT22;7914;50.842;0.166;2023-02-13T12:45:45;9.90;1.00
15630;DHT22;7914;50.842;0.166;2023-02-13T12:50:56;9.90;1.00
15630;DHT22;7914;50.842;0.166;2023-02-13T12:55:54;9.90;1.00
15630;DHT22;7914;50.842;0.166;2023-02-13T13:06:58;9.90;99.90
15630;DHT22;7914;50.842;0.166;2023-02-13T13:09:52;9.90;99.90
15630;DHT22;7914;50.842;0.166;2023-02-13T13:18:10;9.80;99.90
15630;DHT22;7914;50.842;0.166;2023-02-13T13:23:20;9.80;99.90
15630;DHT22;7914;50.842;0.166;2023-02-13T13:28:45;9.80;99.90
15630;DHT22;7914;50.842;0.166;2023-02-13T13:31:11;9.80;99.90
15630;DHT22;7914;50.842;0.166;2023-02-13T13:33:40;9.80;99.90
15630;DHT22;7914;50.842;0.166;2023-02-13T13:39:42;9.70;99.90
15630;DHT22;7914;50.842;0.166;2023-02-13T13:42:16;9.80;99.90
15630;DHT22;7914;50.842;0.166;2023-02-13T13:44:51;9.70;99.90
15630;DHT22;7914;50.842;0.166;2023-02-13T13:49:54;9.70;99.90
15630;DHT22;7914;50.842;0.166;2023-02-13T13:52:27;9.70;99.90
15630;DHT22;7914;50.842;0.166;2023-02-13T13:54:55;9.50;99.90
15630;DHT22;7914;50.842;0.166;2023-02-13T13:57:25;9.70;99.90
15630;DHT22;7914;50.842;0.166;2023-02-13T13:59:58;9.70;99.90
15630;DHT22;7914;50.842;0.166;2023-02-13T14:05:02;9.70;99.90
15630;DHT22;7914;50.842;0.166;2023-02-13T14:07:37;9.70;99.90
15630;DHT22;7914;50.842;0.166;2023-02-13T14:23:43;9.60;99.90
15630;DHT22;7914;50.842;0.166;2023-02-13T14:26:24;9.60;99.90
15630;DHT22;7914;50.842;0.166;2023-02-13T14:28:58;9.60;99.90
15630;DHT22;7914;50.842;0.166;2023-02-13T14:31:28;8.70;99.90
15630;DHT22;7914;50.842;0.166;2023-02-13T14:34:03;9.50;99.90
15630;DHT22;7914;50.842;0.166;2023-02-13T14:36:34;9.60;99.90
15630;DHT22;7914;50.842;0.166;2023-02-13T14:39:06;9.80;99.90
15630;DHT22;7914;50.842;0.166;2023-02-13T14:47:21;9.50;99.90
15630;DHT22;7914;50.842;0.166;2023-02-13T14:49:50;9.50;99.90
15630;DHT22;7914;50.842;0.166;2023-02-13T14:52:19;9.50;1.00
15630;DHT22;7914;50.842;0.166;2023-02-13T14:54:58;9.40;99.90
15630;DHT22;7914;50.842;0.166;2023-02-13T14:57:48;9.70;1.00
15630;DHT22;7914;50.842;0.166;2023-02-13T15:00:42;9.40;1.00
15630;DHT22;7914;50.842;0.166;2023-02-13T15:06:02;9.30;1.00
15630;DHT22;7914;50.842;0.166;2023-02-13T15:08:34;9.20;1.00
15630;DHT22;7914;50.842;0.166;2023-02-13T15:11:01;9.10;1.00
15630;DHT22;7914;50.842;0.166;2023-02-13T15:13:35;9.10;1.00
15630;DHT22;7914;50.842;0.166;2023-02-13T15:16:11;9.10;1.00
15630;DHT22;7914;50.842;0.166;2023-02-13T15:18:49;9.10;1.00
15630;DHT22;7914;50.842;0.166;2023-02-13T15:21:21;9.00;1.00
15630;DHT22;7914;50.842;0.166;2023-02-13T15:23:53;9.00;1.00
15630;DHT22;7914;50.842;0.166;2023-02-13T15:26:22;9.00;1.00
15630;DHT22;7914;50.842;0.166;2023-02-13T15:29:03;8.90;1.00
15630;DHT22;7914;50.842;0.166;2023-02-13T15:31:31;8.90;1.00
15630;DHT22;7914;50.842;0.166;2023-02-13T15:33:57;8.80;1.00
15630;DHT22;7914;50.842;0.166;2023-02-13T15:36:25;9.30;1.00
15630;DHT22;7914;50.842;0.166;2023-02-13T15:39:02;8.80;1.00
15630;DHT22;7914;50.842;0.166;2023-02-13T15:41:35;8.70;1.00
15630;DHT22;7914;50.842;0.166;2023-02-13T15:44:02;8.60;16.40
15630;DHT22;7914;50.842;0.166;2023-02-13T15:46:30;9.20;42.90
15630;DHT22;7914;50.842;0.166;2023-02-13T15:49:00;8.60;86.00
15630;DHT22;7914;50.842;0.166;2023-02-13T15:51:28;8.50;90.30
15630;DHT22;7914;50.842;0.166;2023-02-13T15:54:06;8.50;99.90
15630;DHT22;7914;50.842;0.166;2023-02-13T15:56:45;8.40;99.90
15630;DHT22;7914;50.842;0.166;2023-02-13T15:59:11;8.90;99.90
15630;DHT22;7914;50.842;0.166;2023-02-13T16:01:40;8.70;99.90
15630;DHT22;7914;50.842;0.166;2023-02-13T16:04:11;8.30;99.90
15630;DHT22;7914;50.842;0.166;2023-02-13T16:06:39;8.30;99.90
15630;DHT22;7914;50.842;0.166;2023-02-13T16:09:05;8.20;99.90
15630;DHT22;7914;50.842;0.166;2023-02-13T16:11:39;8.30;99.90
15630;DHT22;7914;50.842;0.166;2023-02-13T16:21:51;8.00;99.90
15630;DHT22;7914;50.842;0.166;2023-02-13T16:24:18;8.50;99.90
15630;DHT22;7914;50.842;0.166;2023-02-13T16:26:45;8.80;99.90
15630;DHT22;7914;50.842;0.166;2023-02-13T16:29:18;7.80;99.90
15630;DHT22;7914;50.842;0.166;2023-02-13T16:31:43;7.70;99.90
15630;DHT22;7914;50.842;0.166;2023-02-13T16:34:27;8.20;99.90
15630;DHT22;7914;50.842;0.166;2023-02-13T16:36:53;7.70;99.90
15630;DHT22;7914;50.842;0.166;2023-02-13T16:39:25;8.30;99.90
15630;DHT22;7914;50.842;0.166;2023-02-13T16:41:51;7.50;99.90
15630;DHT22;7914;50.842;0.166;2023-02-13T16:44:35;7.60;99.90
15630;DHT22;7914;50.842;0.166;2023-02-13T16:47:04;7.40;99.90
15630;DHT22;7914;50.842;0.166;2023-02-13T16:49:35;7.40;99.90
15630;DHT22;7914;50.842;0.166;2023-02-13T16:52:13;7.30;99.90
15630;DHT22;7914;50.842;0.166;2023-02-13T16:54:57;7.20;99.90
15630;DHT22;7914;50.842;0.166;2023-02-13T16:57:29;7.20;99.90
15630;DHT22;7914;50.842;0.166;2023-02-13T17:02:39;7.10;99.90
15630;DHT22;7914;50.842;0.166;2023-02-13T17:07:39;7.00;99.90
15630;DHT22;7914;50.842;0.166;2023-02-13T17:12:43;6.90;99.90
15630;DHT22;7914;50.842;0.166;2023-02-13T17:15:11;6.80;99.90
15630;DHT22;7914;50.842;0.166;2023-02-13T17:17:38;6.70;99.90
15630;DHT22;7914;50.842;0.166;2023-02-13T17:20:04;6.80;99.90
15630;DHT22;7914;50.842;0.166;2023-02-13T17:22:50;6.70;99.90
15630;DHT22;7914;50.842;0.166;2023-02-13T17:25:28;6.60;99.90
15630;DHT22;7914;50.842;0.166;2023-02-13T17:27:56;6.60;99.90
15630;DHT22;7914;50.842;0.166;2023-02-13T17:30:24;6.60;99.90
15630;DHT22;7914;50.842;0.166;2023-02-13T17:33:37;6.50;99.90
15630;DHT22;7914;50.842;0.166;2023-02-13T17:35:43;6.50;99.90
15630;DHT22;7914;50.842;0.166;2023-02-13T17:38:09;6.50;99.90
15630;DHT22;7914;50.842;0.166;2023-02-13T17:40:35;6.50;99.90
15630;DHT22;7914;50.842;0.166;2023-02-13T17:43:01;6.50;99.90
15630;DHT22;7914;50.842;0.166;2023-02-13T17:45:30;7.10;99.90
15630;DHT22;7914;50.842;0.166;2023-02-13T17:47:56;7.20;99.90
15630;DHT22;7914;50.842;0.166;2023-02-13T17:50:23;6.30;99.90
15630;DHT22;7914;50.842;0.166;2023-02-13T17:52:49;6.30;99.90
15630;DHT22;7914;50.842;0.166;2023-02-13T17:55:24;6.30;99.90
15630;DHT22;7914;50.842;0.166;2023-02-13T17:57:51;6.90;99.90
15630;DHT22;7914;50.842;0.166;2023-02-13T18:00:18;7.30;99.90
15630;DHT22;7914;50.842;0.166;2023-02-13T18:02:48;6.30;99.90
15630;DHT22;7914;50.842;0.166;2023-02-13T18:05:15;6.20;99.90
15630;DHT22;7914;50.842;0.166;2023-02-13T18:07:42;6.10;99.90
15630;DHT22;7914;50.842;0.166;2023-02-13T18:12:38;6.10;99.90
15630;DHT22;7914;50.842;0.166;2023-02-13T18:15:04;6.10;99.90
15630;DHT22;7914;50.842;0.166;2023-02-13T18:17:30;6.10;99.90
15630;DHT22;7914;50.842;0.166;2023-02-13T18:19:56;6.00;99.90
15630;DHT22;7914;50.842;0.166;2023-02-13T18:22:22;6.10;99.90
15630;DHT22;7914;50.842;0.166;2023-02-13T18:24:48;6.10;99.90
15630;DHT22;7914;50.842;0.166;2023-02-13T18:27:14;6.00;99.90
15630;DHT22;7914;50.842;0.166;2023-02-13T18:29:40;6.00;99.90
15630;DHT22;7914;50.842;0.166;2023-02-13T18:32:07;6.00;99.90
15630;DHT22;7914;50.842;0.166;2023-02-13T18:34:34;6.00;99.90
15630;DHT22;7914;50.842;0.166;2023-02-13T18:37:00;5.90;99.90
15630;DHT22;7914;50.842;0.166;2023-02-13T18:39:26;5.90;99.90
15630;DHT22;7914;50.842;0.166;2023-02-13T18:41:51;6.30;99.90
15630;DHT22;7914;50.842;0.166;2023-02-13T18:44:17;5.70;99.90
15630;DHT22;7914;50.842;0.166;2023-02-13T18:46:43;5.80;99.90
15630;DHT22;7914;50.842;0.166;2023-02-13T18:49:09;5.80;99.90
15630;DHT22;7914;50.842;0.166;2023-02-13T18:51:37;5.70;99.90
15630;DHT22;7914;50.842;0.166;2023-02-13T18:54:03;5.80;99.90
15630;DHT22;7914;50.842;0.166;2023-02-13T18:56:29;5.60;99.90
15630;DHT22;7914;50.842;0.166;2023-02-13T18:58:54;5.60;99.90
15630;DHT22;7914;50.842;0.166;2023-02-13T19:01:21;5.60;99.90
15630;DHT22;7914;50.842;0.166;2023-02-13T19:03:49;5.60;99.90
15630;DHT22;7914;50.842;0.166;2023-02-13T19:06:20;5.50;99.90